Time;durP1;ratioP1;P1;durP2;ratioP2;P2;SDS_P1;SDS_P2;PMS_P1;PMS_P2;Temp;Humidity;BMP_temperature;BMP_pressure;BME280_temperature;BME280_humidity;BME280_pressure;Samples;Min_cycle;Max_cycle;Signal;HPM_P1;HPM_P2
2023/07/03 00:02:01;;;;;;;;;;;20.80;62.50;;;;;;4011366;29;19935;-46
2023/07/03 00:04:45;;;;;;;;;;;20.80;62.60;;;;;;4000254;29;20322;-43
2023/07/03 00:07:26;;;;;;;;;;;20.80;62.60;;;;;;4011503;29;20363;-43
2023/07/03 00:10:09;;;;;;;;;;;20.80;62.60;;;;;;4011497;29;20003;-42
2023/07/03 00:12:51;;;;;;;;;;;20.80;63.50;;;;;;4012210;29;20299;-42
2023/07/03 00:15:32;;;;;;;;;;;20.80;62.70;;;;;;4000438;29;19983;-44
2023/07/03 00:18:13;;;;;;;;;;;20.80;62.80;;;;;;4006668;29;19935;-44
2023/07/03 00:20:54;;;;;;;;;;;20.80;63.80;;;;;;4012420;29;20767;-42
2023/07/03 00:23:35;;;;;;;;;;;20.80;63.00;;;;;;4015000;29;19931;-42
2023/07/03 00:26:15;;;;;;;;;;;20.80;63.00;;;;;;4014710;29;19984;-42
2023/07/03 00:28:57;;;;;;;;;;;20.80;62.90;;;;;;4014382;29;20072;-43
2023/07/03 00:31:38;;;;;;;;;;;20.70;62.60;;;;;;4003610;29;19930;-42
2023/07/03 00:34:19;;;;;;;;;;;20.70;62.80;;;;;;4002953;29;19935;-43
2023/07/03 00:36:59;;;;;;;;;;;20.70;62.80;;;;;;4013280;29;19931;-46
2023/07/03 00:39:40;;;;;;;;;;;20.70;62.90;;;;;;3999382;29;19935;-44
2023/07/03 00:42:23;;;;;;;;;;;20.70;63.00;;;;;;3999113;29;20073;-42
2023/07/03 00:45:08;;;;;;;;;;;20.70;63.00;;;;;;3998595;29;19932;-44
2023/07/03 00:47:49;;;;;;;;;;;20.70;63.10;;;;;;4000536;29;19946;-43
2023/07/03 00:50:30;;;;;;;;;;;20.70;63.10;;;;;;4002971;29;19947;-43
2023/07/03 00:53:11;;;;;;;;;;;20.70;64.20;;;;;;3992717;29;20008;-44
2023/07/03 00:55:55;;;;;;;;;;;20.70;63.40;;;;;;4014414;29;19940;-45
2023/07/03 00:58:36;;;;;;;;;;;20.70;63.50;;;;;;4013990;29;20501;-43
2023/07/03 01:01:21;;;;;;;;;;;20.70;63.70;;;;;;4014217;29;20012;-45
2023/07/03 01:04:05;;;;;;;;;;;20.70;63.70;;;;;;4014462;29;19935;-43
2023/07/03 01:06:47;;;;;;;;;;;20.70;64.70;;;;;;4014068;29;19935;-43
2023/07/03 01:09:31;;;;;;;;;;;20.70;63.70;;;;;;4013818;29;19935;-42
2023/07/03 01:12:12;;;;;;;;;;;20.70;63.90;;;;;;4014549;29;19934;-46
2023/07/03 01:14:56;;;;;;;;;;;20.70;64.00;;;;;;3992059;29;19935;-43
2023/07/03 01:17:40;;;;;;;;;;;20.60;63.90;;;;;;4013998;29;19935;-44
2023/07/03 01:20:22;;;;;;;;;;;20.60;63.90;;;;;;3999281;29;19936;-42
2023/07/03 01:23:05;;;;;;;;;;;20.70;64.00;;;;;;4011378;29;19931;-43
2023/07/03 01:25:48;;;;;;;;;;;20.60;63.90;;;;;;4002761;29;19931;-44
2023/07/03 01:28:30;;;;;;;;;;;20.60;63.90;;;;;;4013904;29;19970;-43
2023/07/03 01:31:14;;;;;;;;;;;20.60;63.90;;;;;;4013884;29;19931;-43
2023/07/03 01:33:56;;;;;;;;;;;20.60;63.90;;;;;;3987865;29;20016;-43
2023/07/03 01:36:38;;;;;;;;;;;20.60;64.00;;;;;;3998596;29;20312;-44
2023/07/03 01:39:20;;;;;;;;;;;20.60;65.10;;;;;;4010583;29;20008;-43
2023/07/03 01:42:02;;;;;;;;;;;20.60;64.00;;;;;;4001947;29;19935;-44
2023/07/03 01:44:43;;;;;;;;;;;20.60;64.00;;;;;;4002437;29;20053;-43
2023/07/03 01:47:24;;;;;;;;;;;20.60;64.00;;;;;;4012866;29;19931;-42
2023/07/03 01:50:06;;;;;;;;;;;20.60;63.90;;;;;;3998799;29;19935;-43
2023/07/03 01:52:51;;;;;;;;;;;20.60;64.10;;;;;;3994432;29;20633;-42
2023/07/03 01:55:34;;;;;;;;;;;20.60;64.20;;;;;;3997384;29;19951;-43
2023/07/03 01:58:21;;;;;;;;;;;20.60;64.30;;;;;;3990514;29;19935;-43
2023/07/03 02:01:04;;;;;;;;;;;20.60;64.30;;;;;;4001468;29;19935;-42
2023/07/03 02:03:48;;;;;;;;;;;20.60;64.30;;;;;;4001592;29;20060;-44
2023/07/03 02:06:35;;;;;;;;;;;20.60;64.20;;;;;;4012247;29;20291;-45
2023/07/03 02:09:16;;;;;;;;;;;20.60;64.30;;;;;;4001839;29;20057;-43
2023/07/03 02:12:01;;;;;;;;;;;20.60;64.10;;;;;;3987168;29;19931;-42
2023/07/03 02:14:44;;;;;;;;;;;20.60;64.20;;;;;;3987002;29;20300;-42
2023/07/03 02:17:25;;;;;;;;;;;20.60;64.30;;;;;;3986840;29;19935;-43
2023/07/03 02:20:13;;;;;;;;;;;20.50;64.00;;;;;;3990838;29;19931;-45
2023/07/03 02:22:56;;;;;;;;;;;20.50;64.20;;;;;;4012330;29;20012;-43
2023/07/03 02:25:36;;;;;;;;;;;20.50;64.20;;;;;;4013022;29;19952;-44
2023/07/03 02:28:17;;;;;;;;;;;20.50;64.30;;;;;;4012399;29;19939;-43
2023/07/03 02:31:00;;;;;;;;;;;20.50;64.40;;;;;;3997194;29;20277;-44
2023/07/03 02:33:41;;;;;;;;;;;20.50;65.30;;;;;;3986427;29;19932;-46
2023/07/03 02:36:29;;;;;;;;;;;20.50;64.30;;;;;;3996922;29;19935;-44
2023/07/03 02:39:10;;;;;;;;;;;20.50;64.20;;;;;;4007123;29;19935;-43
2023/07/03 02:41:51;;;;;;;;;;;20.50;64.20;;;;;;4012664;29;20120;-44
2023/07/03 02:44:31;;;;;;;;;;;20.50;64.30;;;;;;4012384;29;19931;-45
2023/07/03 02:47:14;;;;;;;;;;;20.50;64.30;;;;;;3997438;29;19935;-43
2023/07/03 02:49:56;;;;;;;;;;;20.50;64.30;;;;;;3986228;29;19932;-43
2023/07/03 02:52:37;;;;;;;;;;;20.50;64.30;;;;;;3986362;29;19936;-42
2023/07/03 02:55:20;;;;;;;;;;;20.50;65.10;;;;;;3990255;29;19935;-45
2023/07/03 02:58:01;;;;;;;;;;;20.50;64.20;;;;;;4000360;29;19947;-42
2023/07/03 03:00:46;;;;;;;;;;;20.50;64.20;;;;;;4001402;29;20040;-43
2023/07/03 03:03:29;;;;;;;;;;;20.50;64.20;;;;;;4000251;29;20019;-44
2023/07/03 03:06:10;;;;;;;;;;;20.50;64.10;;;;;;4000481;29;20006;-44
2023/07/03 03:08:50;;;;;;;;;;;20.50;65.10;;;;;;3990758;29;19931;-43
2023/07/03 03:11:32;;;;;;;;;;;20.50;64.20;;;;;;3990715;29;19931;-44
2023/07/03 03:14:13;;;;;;;;;;;20.50;64.30;;;;;;3990727;29;20061;-43
2023/07/03 03:16:54;;;;;;;;;;;20.50;64.20;;;;;;3985554;29;19931;-45
2023/07/03 03:19:36;;;;;;;;;;;20.50;64.20;;;;;;4000729;29;19935;-43
2023/07/03 03:22:17;;;;;;;;;;;20.50;64.20;;;;;;4000920;29;20418;-42
2023/07/03 03:24:58;;;;;;;;;;;20.40;64.30;;;;;;3999933;29;19935;-43
2023/07/03 03:27:38;;;;;;;;;;;20.40;64.20;;;;;;3999951;29;19931;-44
2023/07/03 03:30:20;;;;;;;;;;;20.40;64.20;;;;;;4011658;29;19947;-45
2023/07/03 03:33:01;;;;;;;;;;;20.40;64.20;;;;;;4001151;29;20382;-43
2023/07/03 03:35:46;;;;;;;;;;;20.40;64.20;;;;;;4000465;29;19940;-43
2023/07/03 03:38:27;;;;;;;;;;;20.40;64.10;;;;;;4001104;29;19931;-44
2023/07/03 03:41:09;;;;;;;;;;;20.40;64.00;;;;;;4000934;29;20068;-42
2023/07/03 03:43:52;;;;;;;;;;;20.40;63.80;;;;;;4001083;29;19931;-43
2023/07/03 03:46:36;;;;;;;;;;;20.40;63.80;;;;;;4000363;29;19932;-43
2023/07/03 03:49:17;;;;;;;;;;;20.40;63.80;;;;;;4010168;29;19930;-45
2023/07/03 03:51:59;;;;;;;;;;;20.40;63.80;;;;;;4000474;29;19931;-43
2023/07/03 03:54:40;;;;;;;;;;;20.40;63.80;;;;;;4000502;29;20028;-42
2023/07/03 03:57:21;;;;;;;;;;;20.40;63.60;;;;;;3997953;29;19942;-44
2023/07/03 04:00:03;;;;;;;;;;;20.40;63.60;;;;;;3999737;29;19931;-44
2023/07/03 04:02:52;;;;;;;;;;;20.40;63.50;;;;;;4012144;29;20316;-43
2023/07/03 04:05:33;;;;;;;;;;;20.40;63.50;;;;;;4000178;29;19931;-42
2023/07/03 04:08:15;;;;;;;;;;;20.40;63.60;;;;;;3995966;29;20321;-43
2023/07/03 04:10:56;;;;;;;;;;;20.40;63.60;;;;;;3997045;29;20068;-44
2023/07/03 04:13:36;;;;;;;;;;;20.40;63.50;;;;;;3996863;29;20300;-44
2023/07/03 04:16:18;;;;;;;;;;;20.40;63.50;;;;;;4008317;29;19974;-45
2023/07/03 04:18:59;;;;;;;;;;;20.30;63.40;;;;;;4000282;29;19935;-42
2023/07/03 04:21:40;;;;;;;;;;;20.30;63.40;;;;;;4012236;29;19935;-43
2023/07/03 04:24:22;;;;;;;;;;;20.30;63.20;;;;;;4011996;29;20275;-42
2023/07/03 04:27:03;;;;;;;;;;;20.30;63.30;;;;;;4011655;29;19934;-45
2023/07/03 04:29:43;;;;;;;;;;;20.30;63.50;;;;;;4012117;29;20443;-43
2023/07/03 04:32:24;;;;;;;;;;;20.40;63.80;;;;;;4012333;29;19931;-44
2023/07/03 04:35:06;;;;;;;;;;;20.40;63.80;;;;;;4011173;29;20417;-46
2023/07/03 04:37:47;;;;;;;;;;;20.40;63.60;;;;;;4000141;29;19931;-44
2023/07/03 04:40:30;;;;;;;;;;;20.40;63.40;;;;;;3989991;29;19931;-43
2023/07/03 04:43:11;;;;;;;;;;;20.40;63.90;;;;;;4011825;29;19935;-44
2023/07/03 04:45:53;;;;;;;;;;;20.40;63.10;;;;;;4006766;29;19980;-43
2023/07/03 04:48:34;;;;;;;;;;;20.40;63.00;;;;;;4011817;29;20072;-44
2023/07/03 04:51:15;;;;;;;;;;;20.40;63.10;;;;;;4011752;29;20394;-44
2023/07/03 04:53:55;;;;;;;;;;;20.40;63.10;;;;;;4011345;29;20383;-44
2023/07/03 04:56:37;;;;;;;;;;;20.40;63.20;;;;;;4012168;29;20383;-44
2023/07/03 04:59:18;;;;;;;;;;;20.50;63.30;;;;;;4012081;29;20063;-45
2023/07/03 05:01:58;;;;;;;;;;;20.50;63.10;;;;;;4011866;29;20019;-45
2023/07/03 05:04:39;;;;;;;;;;;20.50;63.10;;;;;;4011082;29;19939;-46
2023/07/03 05:07:20;;;;;;;;;;;20.50;63.90;;;;;;3998558;29;20030;-44
2023/07/03 05:10:01;;;;;;;;;;;20.50;62.80;;;;;;3987719;29;20276;-46
2023/07/03 05:12:43;;;;;;;;;;;20.50;62.80;;;;;;3999298;29;19932;-46
2023/07/03 05:15:25;;;;;;;;;;;20.50;62.60;;;;;;4004816;29;19955;-44
2023/07/03 05:18:05;;;;;;;;;;;20.50;62.40;;;;;;4014292;29;19931;-45
2023/07/03 05:20:46;;;;;;;;;;;20.50;62.20;;;;;;4013988;29;19944;-52
2023/07/03 05:23:26;;;;;;;;;;;20.50;62.10;;;;;;4014134;29;19934;-52
2023/07/03 05:26:07;;;;;;;;;;;20.60;61.90;;;;;;4013991;29;19931;-50
2023/07/03 05:28:49;;;;;;;;;;;20.60;61.60;;;;;;4025895;29;19930;-52
2023/07/03 05:31:30;;;;;;;;;;;20.70;61.40;;;;;;4029685;29;19943;-51
2023/07/03 05:34:11;;;;;;;;;;;20.80;61.90;;;;;;4029094;29;19946;-49
2023/07/03 05:36:52;;;;;;;;;;;20.90;60.60;;;;;;4014416;29;20015;-49
2023/07/03 05:39:32;;;;;;;;;;;20.90;60.30;;;;;;4013829;29;20774;-52
2023/07/03 05:42:14;;;;;;;;;;;21.00;60.10;;;;;;4013828;29;19972;-51
2023/07/03 05:44:55;;;;;;;;;;;21.00;59.90;;;;;;4013579;29;19931;-50
2023/07/03 05:47:36;;;;;;;;;;;21.10;59.80;;;;;;3999526;29;20017;-54
2023/07/03 05:50:17;;;;;;;;;;;21.10;59.80;;;;;;3999824;29;20399;-51
2023/07/03 05:52:58;;;;;;;;;;;21.00;59.80;;;;;;3998384;29;19956;-49
2023/07/03 05:55:38;;;;;;;;;;;21.00;60.00;;;;;;4009281;29;20023;-49
2023/07/03 05:58:19;;;;;;;;;;;21.00;60.10;;;;;;3999635;29;19931;-49
2023/07/03 06:01:03;;;;;;;;;;;21.00;60.10;;;;;;4011531;29;19934;-49
2023/07/03 06:03:44;;;;;;;;;;;20.90;60.20;;;;;;4007724;29;19931;-49
2023/07/03 06:06:26;;;;;;;;;;;20.90;60.30;;;;;;4012736;29;19935;-46
2023/07/03 06:09:06;;;;;;;;;;;20.90;60.50;;;;;;4001621;29;20130;-43
2023/07/03 06:11:47;;;;;;;;;;;20.90;60.70;;;;;;4013117;29;19931;-46
2023/07/03 06:14:29;;;;;;;;;;;20.80;60.80;;;;;;4004630;29;19940;-45
2023/07/03 06:17:11;;;;;;;;;;;20.70;61.10;;;;;;4003982;29;20311;-47
2023/07/03 06:19:53;;;;;;;;;;;20.70;61.40;;;;;;4013018;29;19962;-46
2023/07/03 06:22:33;;;;;;;;;;;20.70;61.60;;;;;;4013404;29;19931;-45
2023/07/03 06:25:14;;;;;;;;;;;20.70;61.80;;;;;;4012231;29;19950;-48
2023/07/03 06:27:54;;;;;;;;;;;20.80;62.00;;;;;;4013420;29;20287;-44
2023/07/03 06:30:35;;;;;;;;;;;20.80;61.90;;;;;;4013301;29;20056;-42
2023/07/03 06:33:17;;;;;;;;;;;20.90;62.80;;;;;;4012965;29;19983;-46
2023/07/03 06:35:58;;;;;;;;;;;21.00;61.80;;;;;;4009375;29;20280;-45
2023/07/03 06:38:39;;;;;;;;;;;21.10;61.80;;;;;;4012638;29;20386;-43
2023/07/03 06:41:19;;;;;;;;;;;21.10;62.80;;;;;;4013683;29;20386;-50
2023/07/03 06:44:00;;;;;;;;;;;21.20;62.00;;;;;;4012273;29;19931;-51
2023/07/03 06:46:41;;;;;;;;;;;21.20;61.90;;;;;;3997643;29;19931;-49
2023/07/03 06:49:24;;;;;;;;;;;21.20;61.90;;;;;;4002841;29;20378;-49
2023/07/03 06:52:05;;;;;;;;;;;21.20;61.90;;;;;;4007659;29;19935;-51
2023/07/03 06:54:46;;;;;;;;;;;21.20;61.90;;;;;;4012572;29;20315;-50
2023/07/03 06:57:27;;;;;;;;;;;21.20;62.00;;;;;;4013072;29;19935;-49
2023/07/03 07:00:08;;;;;;;;;;;21.20;62.00;;;;;;4012067;29;19931;-50
2023/07/03 07:02:49;;;;;;;;;;;21.10;62.10;;;;;;4012170;29;20281;-51
2023/07/03 07:05:31;;;;;;;;;;;21.10;62.30;;;;;;4011088;29;19935;-50
2023/07/03 07:08:16;;;;;;;;;;;21.10;63.20;;;;;;4022008;29;19931;-51
2023/07/03 07:10:57;;;;;;;;;;;21.00;62.60;;;;;;4012197;29;19935;-50
2023/07/03 07:13:39;;;;;;;;;;;21.00;63.70;;;;;;4013007;29;20295;-51
2023/07/03 07:16:21;;;;;;;;;;;20.90;63.20;;;;;;4011976;29;19959;-50
2023/07/03 07:19:02;;;;;;;;;;;20.90;63.40;;;;;;4012773;29;19931;-49
2023/07/03 07:21:44;;;;;;;;;;;20.80;64.60;;;;;;4012420;29;19964;-51
2023/07/03 07:24:27;;;;;;;;;;;20.80;64.10;;;;;;3998778;29;20399;-50
2023/07/03 07:27:08;;;;;;;;;;;20.80;64.50;;;;;;4008475;29;19938;-48
2023/07/03 07:29:49;;;;;;;;;;;20.70;64.80;;;;;;3995701;29;20019;-46
2023/07/03 07:32:29;;;;;;;;;;;20.70;65.00;;;;;;4017885;29;19935;-49
2023/07/03 07:35:10;;;;;;;;;;;20.60;65.20;;;;;;3996783;29;19968;-45
2023/07/03 07:37:52;;;;;;;;;;;20.60;66.20;;;;;;4000140;29;19930;-45
2023/07/03 07:40:33;;;;;;;;;;;20.60;65.50;;;;;;4000158;29;20008;-44
2023/07/03 07:43:14;;;;;;;;;;;20.60;65.70;;;;;;3997489;29;19931;-47
2023/07/03 07:45:55;;;;;;;;;;;20.60;65.90;;;;;;3997114;29;19931;-44
2023/07/03 07:48:36;;;;;;;;;;;20.60;66.20;;;;;;3986109;29;19992;-44
2023/07/03 07:51:16;;;;;;;;;;;20.60;66.40;;;;;;3997374;29;19936;-45
2023/07/03 07:53:59;;;;;;;;;;;20.60;66.50;;;;;;3997471;29;19931;-45
2023/07/03 07:56:40;;;;;;;;;;;20.50;66.60;;;;;;3997030;29;19931;-46
2023/07/03 07:59:21;;;;;;;;;;;20.60;66.90;;;;;;3997049;29;20036;-48
2023/07/03 08:02:02;;;;;;;;;;;20.50;67.10;;;;;;4012641;29;19935;-47
2023/07/03 08:04:43;;;;;;;;;;;20.50;67.20;;;;;;4000508;29;19931;-47
2023/07/03 08:07:24;;;;;;;;;;;20.50;67.30;;;;;;4011694;29;19935;-45
2023/07/03 08:10:07;;;;;;;;;;;20.50;67.40;;;;;;3999002;29;19931;-44
2023/07/03 08:12:48;;;;;;;;;;;20.50;67.60;;;;;;4003612;29;20012;-44
2023/07/03 08:15:29;;;;;;;;;;;20.50;67.90;;;;;;4011700;29;20018;-48
2023/07/03 08:18:10;;;;;;;;;;;20.50;68.00;;;;;;4012113;29;19950;-44
2023/07/03 08:20:51;;;;;;;;;;;20.50;68.30;;;;;;4010856;29;19974;-45
2023/07/03 08:23:32;;;;;;;;;;;20.50;68.40;;;;;;4011838;29;19931;-44
2023/07/03 08:26:19;;;;;;;;;;;20.50;68.60;;;;;;4011643;29;20276;-45
2023/07/03 08:29:00;;;;;;;;;;;20.50;69.50;;;;;;4011938;29;19931;-50
2023/07/03 08:31:41;;;;;;;;;;;20.60;68.70;;;;;;4009489;29;20419;-50
2023/07/03 08:34:22;;;;;;;;;;;20.60;68.70;;;;;;4011626;29;19934;-49
2023/07/03 08:37:03;;;;;;;;;;;20.60;68.80;;;;;;4009984;29;19975;-49
2023/07/03 08:39:46;;;;;;;;;;;20.60;68.80;;;;;;4010142;29;20348;-50
2023/07/03 08:42:33;;;;;;;;;;;20.60;69.10;;;;;;3998711;29;19931;-50
2023/07/03 08:45:14;;;;;;;;;;;20.70;69.20;;;;;;3999076;29;19935;-51
2023/07/03 08:47:56;;;;;;;;;;;20.70;69.20;;;;;;4006380;29;20382;-51
2023/07/03 08:50:37;;;;;;;;;;;20.70;69.40;;;;;;4013457;29;20394;-50
2023/07/03 08:53:19;;;;;;;;;;;20.70;69.40;;;;;;4014483;29;20395;-52
2023/07/03 08:56:04;;;;;;;;;;;20.70;70.20;;;;;;4013870;29;20015;-51
2023/07/03 08:58:46;;;;;;;;;;;20.70;69.20;;;;;;4013957;29;19944;-54
2023/07/03 09:01:32;;;;;;;;;;;20.70;70.00;;;;;;4013596;29;19935;-50
2023/07/03 09:04:19;;;;;;;;;;;20.80;68.80;;;;;;4014422;29;19979;-51
2023/07/03 09:07:02;;;;;;;;;;;20.80;68.50;;;;;;4013881;29;19931;-53
2023/07/03 09:09:46;;;;;;;;;;;20.80;68.10;;;;;;4002428;29;19931;-50
2023/07/03 09:12:28;;;;;;;;;;;20.80;67.80;;;;;;4000122;29;19948;-49
2023/07/03 09:15:14;;;;;;;;;;;20.80;67.40;;;;;;4011557;29;19980;-51
2023/07/03 09:17:57;;;;;;;;;;;20.80;67.10;;;;;;3987895;29;20399;-50
2023/07/03 09:20:37;;;;;;;;;;;20.80;66.90;;;;;;3998768;29;19932;-51
2023/07/03 09:23:19;;;;;;;;;;;20.80;66.60;;;;;;3999073;29;19936;-52
2023/07/03 09:26:01;;;;;;;;;;;20.80;66.40;;;;;;4003537;29;19956;-53
2023/07/03 09:28:45;;;;;;;;;;;20.80;66.10;;;;;;4001871;29;19979;-50
2023/07/03 09:31:28;;;;;;;;;;;20.80;65.60;;;;;;4002523;29;19938;-50
2023/07/03 09:34:09;;;;;;;;;;;20.80;65.70;;;;;;4013534;29;19931;-52
2023/07/03 09:36:58;;;;;;;;;;;20.70;65.80;;;;;;4013253;29;20069;-54
2023/07/03 09:39:39;;;;;;;;;;;20.70;66.00;;;;;;3998897;29;19935;-52
2023/07/03 09:42:21;;;;;;;;;;;20.70;66.40;;;;;;3998471;29;19935;-49
2023/07/03 09:45:02;;;;;;;;;;;20.70;66.60;;;;;;3998751;29;20269;-50
2023/07/03 09:47:48;;;;;;;;;;;20.70;66.80;;;;;;3999423;29;19931;-50
2023/07/03 09:50:31;;;;;;;;;;;20.80;66.80;;;;;;4008991;29;19935;-49
2023/07/03 09:53:16;;;;;;;;;;;20.80;66.90;;;;;;4012715;29;19931;-50
2023/07/03 09:55:58;;;;;;;;;;;20.80;67.10;;;;;;4013213;29;19931;-50
2023/07/03 09:58:44;;;;;;;;;;;20.80;67.30;;;;;;4009795;29;19932;-51
2023/07/03 10:01:25;;;;;;;;;;;20.80;67.40;;;;;;4012132;29;19945;-53
2023/07/03 10:04:11;;;;;;;;;;;20.80;67.50;;;;;;4013496;29;19998;-47
2023/07/03 10:06:58;;;;;;;;;;;20.80;67.60;;;;;;4012963;29;19931;-44
2023/07/03 10:09:41;;;;;;;;;;;20.80;67.60;;;;;;4008681;29;19984;-45
2023/07/03 10:12:29;;;;;;;;;;;20.80;67.60;;;;;;3997664;29;19935;-43
2023/07/03 10:15:13;;;;;;;;;;;20.80;67.80;;;;;;4007848;29;19935;-46
2023/07/03 10:17:56;;;;;;;;;;;20.80;67.70;;;;;;4013203;29;19943;-44
2023/07/03 10:20:41;;;;;;;;;;;20.80;67.50;;;;;;4013591;29;19935;-44
2023/07/03 10:23:23;;;;;;;;;;;20.80;67.10;;;;;;4013942;29;20088;-45
2023/07/03 10:26:06;;;;;;;;;;;20.80;66.60;;;;;;4013044;29;19935;-48
2023/07/03 10:28:57;;;;;;;;;;;20.80;66.00;;;;;;4012604;29;19931;-47
2023/07/03 10:31:39;;;;;;;;;;;20.80;65.80;;;;;;4001569;29;20426;-46
2023/07/03 10:34:23;;;;;;;;;;;20.80;65.70;;;;;;4012582;29;20287;-47
2023/07/03 10:37:06;;;;;;;;;;;20.80;65.80;;;;;;4011901;29;20317;-46
2023/07/03 10:39:50;;;;;;;;;;;20.80;65.80;;;;;;4004297;29;19931;-45
2023/07/03 10:42:32;;;;;;;;;;;20.80;65.60;;;;;;4012918;29;19976;-46
2023/07/03 10:45:14;;;;;;;;;;;20.80;65.50;;;;;;4013301;29;20375;-43
2023/07/03 10:47:57;;;;;;;;;;;20.70;65.30;;;;;;4012497;29;19935;-46
2023/07/03 10:50:40;;;;;;;;;;;20.70;65.30;;;;;;4013395;29;20367;-45
2023/07/03 10:53:25;;;;;;;;;;;20.70;65.30;;;;;;4013390;29;20503;-44
2023/07/03 10:56:10;;;;;;;;;;;20.80;65.20;;;;;;4013229;29;19931;-44
2023/07/03 10:58:55;;;;;;;;;;;20.80;65.20;;;;;;4013106;29;19930;-44
2023/07/03 11:01:39;;;;;;;;;;;20.80;65.30;;;;;;4012499;29;20632;-43
2023/07/03 11:04:21;;;;;;;;;;;20.80;65.20;;;;;;3997616;29;19931;-45
2023/07/03 11:07:08;;;;;;;;;;;20.80;65.20;;;;;;3997686;29;19932;-44
2023/07/03 11:09:56;;;;;;;;;;;20.80;65.20;;;;;;3997897;29;19931;-43
2023/07/03 11:12:42;;;;;;;;;;;20.80;65.20;;;;;;4004194;29;19935;-44
2023/07/03 11:15:28;;;;;;;;;;;20.80;65.30;;;;;;4013017;29;19930;-43
2023/07/03 11:18:18;;;;;;;;;;;20.80;65.30;;;;;;4000903;29;19932;-44
2023/07/03 11:21:06;;;;;;;;;;;20.80;65.40;;;;;;4011218;29;20383;-44
2023/07/03 11:23:52;;;;;;;;;;;20.80;65.50;;;;;;4001386;29;19946;-45
2023/07/03 11:26:38;;;;;;;;;;;20.80;66.40;;;;;;4001406;29;19954;-45
2023/07/03 11:29:22;;;;;;;;;;;20.80;65.60;;;;;;4012593;29;19947;-45
2023/07/03 11:32:05;;;;;;;;;;;20.80;65.60;;;;;;4011731;29;20080;-43
2023/07/03 11:34:46;;;;;;;;;;;20.80;65.50;;;;;;4011737;29;20068;-41
2023/07/03 11:37:35;;;;;;;;;;;20.80;65.60;;;;;;4011999;29;19931;-39
2023/07/03 11:40:37;;;;;;;;;;;20.80;65.70;;;;;;4012450;29;20015;-49
2023/07/03 11:43:23;;;;;;;;;;;20.80;66.20;;;;;;3996739;29;19936;-44
2023/07/03 11:46:11;;;;;;;;;;;20.90;66.20;;;;;;3996888;29;20060;-43
2023/07/03 11:48:56;;;;;;;;;;;20.90;66.10;;;;;;3997076;29;20008;-43
2023/07/03 11:51:37;;;;;;;;;;;20.90;66.10;;;;;;3997136;29;20371;-45
2023/07/03 11:54:20;;;;;;;;;;;21.00;65.90;;;;;;4004121;29;20007;-44
2023/07/03 11:57:04;;;;;;;;;;;21.00;65.70;;;;;;4012571;29;20526;-44
2023/07/03 11:59:47;;;;;;;;;;;21.00;65.50;;;;;;4012256;29;19955;-46
2023/07/03 12:02:43;;;;;;;;;;;20.90;64.70;;;;;;4000688;29;20060;-45
2023/07/03 12:05:42;;;;;;;;;;;21.00;64.30;;;;;;4010281;29;19947;-44
2023/07/03 12:08:37;;;;;;;;;;;20.90;63.80;;;;;;4011047;29;19931;-44
2023/07/03 12:11:20;;;;;;;;;;;20.90;63.50;;;;;;4012290;29;19950;-44
2023/07/03 12:14:01;;;;;;;;;;;20.90;63.20;;;;;;4012314;29;19931;-45
2023/07/03 12:16:47;;;;;;;;;;;20.90;62.90;;;;;;4013025;29;19931;-44
2023/07/03 12:19:31;;;;;;;;;;;20.90;62.70;;;;;;4015197;29;20108;-50
2023/07/03 12:22:12;;;;;;;;;;;20.80;62.40;;;;;;4013027;29;20031;-45
2023/07/03 12:25:04;;;;;;;;;;;20.90;62.40;;;;;;4015419;29;19935;-44
2023/07/03 12:27:46;;;;;;;;;;;20.80;62.20;;;;;;4002642;29;19939;-44
2023/07/03 12:30:27;;;;;;;;;;;20.80;62.10;;;;;;4003931;29;19935;-44
2023/07/03 12:33:18;;;;;;;;;;;20.80;61.90;;;;;;3997175;29;19931;-43
2023/07/03 12:35:59;;;;;;;;;;;20.80;61.80;;;;;;4003298;29;20287;-44
2023/07/03 12:38:40;;;;;;;;;;;20.80;61.70;;;;;;4006046;29;20011;-43
2023/07/03 12:41:28;;;;;;;;;;;20.80;61.50;;;;;;3999564;29;19931;-43
2023/07/03 12:44:10;;;;;;;;;;;20.80;61.30;;;;;;4000130;29;19935;-44
2023/07/03 12:46:52;;;;;;;;;;;20.80;61.10;;;;;;4009648;29;20316;-45
2023/07/03 12:49:46;;;;;;;;;;;20.80;61.00;;;;;;4021690;29;19934;-45
2023/07/03 12:52:28;;;;;;;;;;;20.70;60.70;;;;;;4012635;29;19979;-47
2023/07/03 12:55:09;;;;;;;;;;;20.70;60.80;;;;;;3999307;29;19932;-49
2023/07/03 12:57:55;;;;;;;;;;;20.80;60.80;;;;;;3999231;29;20057;-51
2023/07/03 13:00:36;;;;;;;;;;;20.70;60.70;;;;;;3999137;29;20133;-49
2023/07/03 13:03:18;;;;;;;;;;;20.70;60.60;;;;;;3998970;29;19930;-43
2023/07/03 13:06:00;;;;;;;;;;;20.70;60.60;;;;;;3999376;29;19951;-45
2023/07/03 13:08:44;;;;;;;;;;;20.70;60.70;;;;;;3999212;29;19936;-44
2023/07/03 13:11:36;;;;;;;;;;;20.70;60.70;;;;;;4001425;29;20656;-43
2023/07/03 13:14:18;;;;;;;;;;;20.70;60.70;;;;;;3999420;29;19938;-45
2023/07/03 13:17:00;;;;;;;;;;;20.70;60.70;;;;;;4008408;29;19947;-43
2023/07/03 13:19:41;;;;;;;;;;;20.70;61.40;;;;;;4018397;29;19931;-45
2023/07/03 13:22:25;;;;;;;;;;;20.70;61.20;;;;;;4001535;29;20303;-44
2023/07/03 13:25:06;;;;;;;;;;;20.70;60.40;;;;;;4018202;29;19930;-45
2023/07/03 13:27:48;;;;;;;;;;;20.70;60.30;;;;;;3987729;29;20280;-48
2023/07/03 13:30:33;;;;;;;;;;;20.70;60.30;;;;;;3999149;29;20034;-44
2023/07/03 13:33:14;;;;;;;;;;;20.70;60.30;;;;;;4007605;29;19931;-43
2023/07/03 13:35:55;;;;;;;;;;;20.70;60.40;;;;;;4000482;29;19932;-47
2023/07/03 13:38:37;;;;;;;;;;;20.70;60.60;;;;;;3998837;29;19983;-45
2023/07/03 13:41:17;;;;;;;;;;;20.70;60.70;;;;;;3998196;29;19931;-50
2023/07/03 13:43:59;;;;;;;;;;;20.70;61.50;;;;;;3997983;29;20016;-43
2023/07/03 13:46:40;;;;;;;;;;;20.70;60.70;;;;;;3992601;29;19935;-44
2023/07/03 13:49:21;;;;;;;;;;;20.70;60.70;;;;;;4012904;29;19935;-46
2023/07/03 13:52:02;;;;;;;;;;;20.70;60.50;;;;;;4013156;29;20291;-46
2023/07/03 13:54:45;;;;;;;;;;;20.70;60.20;;;;;;4013415;29;20041;-45
2023/07/03 13:57:25;;;;;;;;;;;20.70;59.90;;;;;;4012355;29;19979;-47
2023/07/03 14:00:07;;;;;;;;;;;20.70;59.80;;;;;;4011619;29;20003;-49
2023/07/03 14:02:48;;;;;;;;;;;20.70;59.60;;;;;;3997805;29;20008;-44
2023/07/03 14:05:29;;;;;;;;;;;20.80;59.50;;;;;;3997799;29;20304;-44
2023/07/03 14:08:10;;;;;;;;;;;20.80;59.50;;;;;;3987092;29;19944;-44
2023/07/03 14:10:52;;;;;;;;;;;20.80;59.40;;;;;;4000539;29;19966;-45
2023/07/03 14:13:33;;;;;;;;;;;20.80;59.40;;;;;;4008152;29;19935;-44
2023/07/03 14:16:14;;;;;;;;;;;20.80;59.30;;;;;;3998037;29;19935;-43
2023/07/03 14:18:55;;;;;;;;;;;20.80;59.30;;;;;;3997988;29;19940;-46
2023/07/03 14:21:36;;;;;;;;;;;20.80;59.20;;;;;;4011993;29;20367;-45
2023/07/03 14:24:16;;;;;;;;;;;20.80;59.00;;;;;;4013135;29;19935;-46
2023/07/03 14:26:59;;;;;;;;;;;20.90;58.90;;;;;;4012248;29;19992;-51
2023/07/03 14:29:40;;;;;;;;;;;20.90;58.90;;;;;;4012600;29;20633;-49
2023/07/03 14:32:21;;;;;;;;;;;20.80;58.70;;;;;;4011853;29;20367;-51
2023/07/03 14:35:10;;;;;;;;;;;20.80;58.60;;;;;;4013722;29;19979;-52
2023/07/03 14:37:51;;;;;;;;;;;20.90;58.60;;;;;;4012561;29;19939;-49
2023/07/03 14:40:31;;;;;;;;;;;20.90;58.60;;;;;;4011998;29;20320;-47
2023/07/03 14:43:13;;;;;;;;;;;20.90;58.70;;;;;;4002041;29;19932;-48
2023/07/03 14:45:54;;;;;;;;;;;20.90;58.70;;;;;;3999048;29;19930;-48
2023/07/03 14:48:35;;;;;;;;;;;20.90;58.70;;;;;;4006906;29;19946;-52
2023/07/03 14:51:15;;;;;;;;;;;20.90;58.80;;;;;;4008760;29;19983;-49
2023/07/03 14:53:56;;;;;;;;;;;20.90;58.80;;;;;;3997728;29;20296;-49
2023/07/03 14:56:36;;;;;;;;;;;20.90;58.80;;;;;;4003280;29;20288;-51
2023/07/03 14:59:18;;;;;;;;;;;20.90;58.90;;;;;;4012831;29;20040;-51
2023/07/03 15:01:59;;;;;;;;;;;20.90;58.80;;;;;;4011900;29;20031;-49
2023/07/03 15:04:39;;;;;;;;;;;20.90;58.90;;;;;;4012524;29;19930;-49
2023/07/03 15:07:21;;;;;;;;;;;20.90;58.90;;;;;;4012499;29;19931;-50
2023/07/03 15:10:02;;;;;;;;;;;20.90;58.90;;;;;;4012539;29;20008;-48
2023/07/03 15:12:46;;;;;;;;;;;20.90;58.90;;;;;;4012505;29;19931;-50
2023/07/03 15:15:28;;;;;;;;;;;20.90;58.90;;;;;;4012528;29;20018;-52
2023/07/03 15:18:08;;;;;;;;;;;20.90;59.00;;;;;;3999227;29;19979;-48
2023/07/03 15:20:49;;;;;;;;;;;20.90;59.00;;;;;;4002816;29;20092;-48
2023/07/03 15:23:32;;;;;;;;;;;20.90;59.00;;;;;;3996977;29;19934;-48
2023/07/03 15:26:12;;;;;;;;;;;20.80;59.00;;;;;;3997051;29;19985;-48
2023/07/03 15:28:53;;;;;;;;;;;20.90;59.00;;;;;;4007384;29;20511;-51
2023/07/03 15:31:35;;;;;;;;;;;20.80;59.00;;;;;;4012044;29;19935;-49
2023/07/03 15:34:17;;;;;;;;;;;20.80;59.00;;;;;;3997228;29;19932;-48
2023/07/03 15:36:58;;;;;;;;;;;20.80;58.90;;;;;;3996257;29;20303;-44
2023/07/03 15:39:39;;;;;;;;;;;20.80;58.90;;;;;;3996870;29;19932;-44
2023/07/03 15:42:19;;;;;;;;;;;20.80;58.90;;;;;;3996344;29;19935;-46
2023/07/03 15:45:00;;;;;;;;;;;20.70;58.90;;;;;;3996953;29;19956;-46